sensor_id;sensor_type;location;lat;lon;timestamp;P1;durP1;ratioP1;P2;durP2;ratioP2
4391;SDS011;2210;51.938;8.488;2023-11-19T00:00:12;0.97;;;0.97;;
4391;SDS011;2210;51.938;8.488;2023-11-19T00:04:15;1.00;;;0.70;;
4391;SDS011;2210;51.938;8.488;2023-11-19T00:08:16;0.73;;;0.73;;
4391;SDS011;2210;51.938;8.488;2023-11-19T00:12:22;1.00;;;1.00;;
4391;SDS011;2210;51.938;8.488;2023-11-19T00:16:25;1.13;;;0.80;;
4391;SDS011;2210;51.938;8.488;2023-11-19T00:20:25;1.00;;;1.00;;
4391;SDS011;2210;51.938;8.488;2023-11-19T00:24:26;1.07;;;0.97;;
4391;SDS011;2210;51.938;8.488;2023-11-19T00:28:32;0.93;;;0.93;;
4391;SDS011;2210;51.938;8.488;2023-11-19T00:32:36;1.20;;;1.10;;
4391;SDS011;2210;51.938;8.488;2023-11-19T00:36:41;0.90;;;0.90;;
4391;SDS011;2210;51.938;8.488;2023-11-19T00:40:56;0.93;;;0.90;;
4391;SDS011;2210;51.938;8.488;2023-11-19T00:44:56;0.97;;;0.97;;
4391;SDS011;2210;51.938;8.488;2023-11-19T00:49:03;0.93;;;0.93;;
4391;SDS011;2210;51.938;8.488;2023-11-19T00:53:04;0.80;;;0.80;;
4391;SDS011;2210;51.938;8.488;2023-11-19T00:57:04;2.27;;;1.00;;
4391;SDS011;2210;51.938;8.488;2023-11-19T01:01:05;0.73;;;0.73;;
4391;SDS011;2210;51.938;8.488;2023-11-19T01:05:07;0.80;;;0.80;;
4391;SDS011;2210;51.938;8.488;2023-11-19T01:09:08;0.90;;;0.90;;
4391;SDS011;2210;51.938;8.488;2023-11-19T01:13:09;1.13;;;0.90;;
4391;SDS011;2210;51.938;8.488;2023-11-19T01:21:45;0.77;;;0.77;;
4391;SDS011;2210;51.938;8.488;2023-11-19T01:25:51;0.80;;;0.80;;
4391;SDS011;2210;51.938;8.488;2023-11-19T01:29:55;1.00;;;0.93;;
4391;SDS011;2210;51.938;8.488;2023-11-19T01:33:55;0.80;;;0.80;;
4391;SDS011;2210;51.938;8.488;2023-11-19T01:37:55;0.70;;;0.70;;
4391;SDS011;2210;51.938;8.488;2023-11-19T01:41:55;1.00;;;1.00;;
4391;SDS011;2210;51.938;8.488;2023-11-19T01:45:56;0.87;;;0.87;;
4391;SDS011;2210;51.938;8.488;2023-11-19T01:49:56;0.80;;;0.80;;
4391;SDS011;2210;51.938;8.488;2023-11-19T01:53:57;0.90;;;0.90;;
4391;SDS011;2210;51.938;8.488;2023-11-19T01:58:05;5.07;;;0.80;;
4391;SDS011;2210;51.938;8.488;2023-11-19T02:02:14;0.93;;;0.93;;
4391;SDS011;2210;51.938;8.488;2023-11-19T02:06:14;0.80;;;0.80;;
4391;SDS011;2210;51.938;8.488;2023-11-19T02:10:15;1.87;;;1.17;;
4391;SDS011;2210;51.938;8.488;2023-11-19T02:14:17;1.00;;;1.00;;
4391;SDS011;2210;51.938;8.488;2023-11-19T02:18:18;1.10;;;1.10;;
4391;SDS011;2210;51.938;8.488;2023-11-19T02:22:19;1.00;;;1.00;;
4391;SDS011;2210;51.938;8.488;2023-11-19T02:30:51;1.50;;;1.40;;
4391;SDS011;2210;51.938;8.488;2023-11-19T02:34:57;1.03;;;1.03;;
4391;SDS011;2210;51.938;8.488;2023-11-19T02:39:00;1.33;;;1.23;;
4391;SDS011;2210;51.938;8.488;2023-11-19T02:43:07;1.53;;;1.20;;
4391;SDS011;2210;51.938;8.488;2023-11-19T02:47:08;1.23;;;1.23;;
4391;SDS011;2210;51.938;8.488;2023-11-19T02:51:12;1.40;;;1.30;;
4391;SDS011;2210;51.938;8.488;2023-11-19T02:55:12;2.07;;;1.90;;
4391;SDS011;2210;51.938;8.488;2023-11-19T02:59:13;2.03;;;1.93;;
4391;SDS011;2210;51.938;8.488;2023-11-19T03:03:27;1.67;;;1.57;;
4391;SDS011;2210;51.938;8.488;2023-11-19T03:07:43;2.13;;;2.03;;
4391;SDS011;2210;51.938;8.488;2023-11-19T03:11:50;2.60;;;2.40;;
4391;SDS011;2210;51.938;8.488;2023-11-19T03:15:53;3.60;;;2.73;;
4391;SDS011;2210;51.938;8.488;2023-11-19T03:19:56;2.70;;;2.50;;
4391;SDS011;2210;51.938;8.488;2023-11-19T03:23:57;3.45;;;3.15;;
4391;SDS011;2210;51.938;8.488;2023-11-19T03:28:00;2.80;;;2.60;;
4391;SDS011;2210;51.938;8.488;2023-11-19T03:32:02;4.60;;;2.77;;
4391;SDS011;2210;51.938;8.488;2023-11-19T03:36:02;3.87;;;3.40;;
4391;SDS011;2210;51.938;8.488;2023-11-19T03:40:03;3.40;;;3.10;;
4391;SDS011;2210;51.938;8.488;2023-11-19T03:44:07;4.53;;;3.50;;
4391;SDS011;2210;51.938;8.488;2023-11-19T03:48:07;3.80;;;3.50;;
4391;SDS011;2210;51.938;8.488;2023-11-19T03:52:07;3.27;;;3.07;;
4391;SDS011;2210;51.938;8.488;2023-11-19T03:56:18;3.87;;;3.10;;
4391;SDS011;2210;51.938;8.488;2023-11-19T04:00:21;3.17;;;2.87;;
4391;SDS011;2210;51.938;8.488;2023-11-19T04:04:22;4.90;;;3.30;;
4391;SDS011;2210;51.938;8.488;2023-11-19T04:08:22;3.50;;;2.93;;
4391;SDS011;2210;51.938;8.488;2023-11-19T04:12:26;5.10;;;3.50;;
4391;SDS011;2210;51.938;8.488;2023-11-19T04:16:26;3.80;;;3.10;;
4391;SDS011;2210;51.938;8.488;2023-11-19T04:20:52;3.37;;;2.83;;
4391;SDS011;2210;51.938;8.488;2023-11-19T04:24:55;3.73;;;3.43;;
4391;SDS011;2210;51.938;8.488;2023-11-19T04:29:01;7.30;;;3.70;;
4391;SDS011;2210;51.938;8.488;2023-11-19T04:33:04;3.93;;;2.50;;
4391;SDS011;2210;51.938;8.488;2023-11-19T04:37:11;7.37;;;2.90;;
4391;SDS011;2210;51.938;8.488;2023-11-19T04:41:18;6.07;;;2.80;;
4391;SDS011;2210;51.938;8.488;2023-11-19T04:45:18;5.43;;;2.50;;
4391;SDS011;2210;51.938;8.488;2023-11-19T04:49:27;5.88;;;2.50;;
4391;SDS011;2210;51.938;8.488;2023-11-19T04:53:27;19.03;;;4.00;;
4391;SDS011;2210;51.938;8.488;2023-11-19T04:57:27;10.43;;;3.03;;
4391;SDS011;2210;51.938;8.488;2023-11-19T05:01:28;10.90;;;3.60;;
4391;SDS011;2210;51.938;8.488;2023-11-19T05:05:37;14.77;;;4.43;;
4391;SDS011;2210;51.938;8.488;2023-11-19T05:09:41;18.77;;;4.30;;
4391;SDS011;2210;51.938;8.488;2023-11-19T05:13:43;21.47;;;5.17;;
4391;SDS011;2210;51.938;8.488;2023-11-19T05:18:01;9.77;;;4.20;;
4391;SDS011;2210;51.938;8.488;2023-11-19T05:22:01;13.73;;;3.60;;
4391;SDS011;2210;51.938;8.488;2023-11-19T05:26:20;8.60;;;2.83;;
4391;SDS011;2210;51.938;8.488;2023-11-19T05:30:21;7.83;;;3.00;;
4391;SDS011;2210;51.938;8.488;2023-11-19T05:34:22;10.93;;;3.90;;
4391;SDS011;2210;51.938;8.488;2023-11-19T05:38:23;13.88;;;4.50;;
4391;SDS011;2210;51.938;8.488;2023-11-19T05:42:23;18.93;;;5.47;;
4391;SDS011;2210;51.938;8.488;2023-11-19T05:46:24;9.53;;;4.17;;
4391;SDS011;2210;51.938;8.488;2023-11-19T05:50:25;15.17;;;3.23;;
4391;SDS011;2210;51.938;8.488;2023-11-19T05:54:29;7.00;;;2.97;;
4391;SDS011;2210;51.938;8.488;2023-11-19T05:58:29;7.00;;;2.73;;
4391;SDS011;2210;51.938;8.488;2023-11-19T06:02:30;5.27;;;2.50;;
4391;SDS011;2210;51.938;8.488;2023-11-19T06:06:33;8.67;;;2.17;;
4391;SDS011;2210;51.938;8.488;2023-11-19T06:10:33;8.47;;;2.87;;
4391;SDS011;2210;51.938;8.488;2023-11-19T06:14:33;15.97;;;4.20;;
4391;SDS011;2210;51.938;8.488;2023-11-19T06:18:33;10.10;;;3.15;;
4391;SDS011;2210;51.938;8.488;2023-11-19T06:22:40;15.53;;;3.50;;
4391;SDS011;2210;51.938;8.488;2023-11-19T06:26:43;11.63;;;3.33;;
4391;SDS011;2210;51.938;8.488;2023-11-19T06:30:46;10.67;;;3.97;;
4391;SDS011;2210;51.938;8.488;2023-11-19T06:34:47;14.03;;;5.00;;
4391;SDS011;2210;51.938;8.488;2023-11-19T06:38:47;14.50;;;4.00;;
4391;SDS011;2210;51.938;8.488;2023-11-19T06:42:49;16.27;;;4.33;;
4391;SDS011;2210;51.938;8.488;2023-11-19T06:46:52;10.20;;;3.00;;
4391;SDS011;2210;51.938;8.488;2023-11-19T06:50:56;12.60;;;3.60;;
4391;SDS011;2210;51.938;8.488;2023-11-19T06:55:00;12.23;;;4.50;;
4391;SDS011;2210;51.938;8.488;2023-11-19T06:59:00;15.77;;;3.83;;
4391;SDS011;2210;51.938;8.488;2023-11-19T07:03:00;11.20;;;3.97;;
4391;SDS011;2210;51.938;8.488;2023-11-19T07:07:01;17.57;;;5.20;;
4391;SDS011;2210;51.938;8.488;2023-11-19T07:11:01;14.43;;;3.87;;
4391;SDS011;2210;51.938;8.488;2023-11-19T07:15:02;16.90;;;4.20;;
4391;SDS011;2210;51.938;8.488;2023-11-19T07:19:03;22.13;;;4.87;;
4391;SDS011;2210;51.938;8.488;2023-11-19T07:23:05;27.10;;;3.70;;
4391;SDS011;2210;51.938;8.488;2023-11-19T07:27:06;18.10;;;3.73;;
4391;SDS011;2210;51.938;8.488;2023-11-19T07:31:08;10.97;;;3.17;;
4391;SDS011;2210;51.938;8.488;2023-11-19T07:35:09;14.47;;;2.90;;
4391;SDS011;2210;51.938;8.488;2023-11-19T07:39:09;12.40;;;3.30;;
4391;SDS011;2210;51.938;8.488;2023-11-19T07:43:10;14.93;;;4.60;;
4391;SDS011;2210;51.938;8.488;2023-11-19T07:47:10;12.67;;;4.30;;
4391;SDS011;2210;51.938;8.488;2023-11-19T07:51:11;12.48;;;3.55;;
4391;SDS011;2210;51.938;8.488;2023-11-19T07:55:12;11.77;;;4.33;;
4391;SDS011;2210;51.938;8.488;2023-11-19T07:59:12;14.90;;;3.43;;
4391;SDS011;2210;51.938;8.488;2023-11-19T08:03:12;11.07;;;3.47;;
4391;SDS011;2210;51.938;8.488;2023-11-19T08:07:13;9.67;;;3.60;;
4391;SDS011;2210;51.938;8.488;2023-11-19T08:11:13;15.93;;;3.60;;
4391;SDS011;2210;51.938;8.488;2023-11-19T08:15:16;13.80;;;3.90;;
4391;SDS011;2210;51.938;8.488;2023-11-19T08:19:17;12.30;;;4.20;;
4391;SDS011;2210;51.938;8.488;2023-11-19T08:23:17;21.73;;;4.40;;
4391;SDS011;2210;51.938;8.488;2023-11-19T08:27:18;16.30;;;4.23;;
4391;SDS011;2210;51.938;8.488;2023-11-19T08:31:18;14.13;;;3.83;;
4391;SDS011;2210;51.938;8.488;2023-11-19T08:35:19;12.80;;;4.80;;
4391;SDS011;2210;51.938;8.488;2023-11-19T08:39:22;15.03;;;4.20;;
4391;SDS011;2210;51.938;8.488;2023-11-19T08:43:23;9.13;;;3.40;;
4391;SDS011;2210;51.938;8.488;2023-11-19T08:47:23;15.83;;;4.20;;
4391;SDS011;2210;51.938;8.488;2023-11-19T08:51:27;9.33;;;3.87;;
4391;SDS011;2210;51.938;8.488;2023-11-19T08:55:28;13.83;;;4.00;;
4391;SDS011;2210;51.938;8.488;2023-11-19T08:59:28;16.33;;;3.90;;
4391;SDS011;2210;51.938;8.488;2023-11-19T09:03:30;20.17;;;3.90;;
4391;SDS011;2210;51.938;8.488;2023-11-19T09:07:37;16.60;;;4.90;;
4391;SDS011;2210;51.938;8.488;2023-11-19T09:11:41;21.27;;;4.60;;
4391;SDS011;2210;51.938;8.488;2023-11-19T09:15:42;18.77;;;5.50;;
4391;SDS011;2210;51.938;8.488;2023-11-19T09:19:42;17.60;;;4.20;;
4391;SDS011;2210;51.938;8.488;2023-11-19T09:23:42;19.17;;;4.13;;
4391;SDS011;2210;51.938;8.488;2023-11-19T09:27:44;16.33;;;3.70;;
4391;SDS011;2210;51.938;8.488;2023-11-19T13:02:07;11.20;;;3.40;;
4391;SDS011;2210;51.938;8.488;2023-11-19T13:06:09;10.70;;;2.70;;
4391;SDS011;2210;51.938;8.488;2023-11-19T13:10:13;11.87;;;2.63;;
4391;SDS011;2210;51.938;8.488;2023-11-19T13:14:13;10.17;;;2.70;;
4391;SDS011;2210;51.938;8.488;2023-11-19T13:18:15;16.40;;;2.90;;
4391;SDS011;2210;51.938;8.488;2023-11-19T13:22:19;8.37;;;2.70;;
4391;SDS011;2210;51.938;8.488;2023-11-19T13:26:19;11.40;;;3.37;;
4391;SDS011;2210;51.938;8.488;2023-11-19T13:30:23;7.80;;;3.60;;
4391;SDS011;2210;51.938;8.488;2023-11-19T13:34:27;12.10;;;2.70;;
4391;SDS011;2210;51.938;8.488;2023-11-19T13:38:27;14.30;;;3.00;;
4391;SDS011;2210;51.938;8.488;2023-11-19T13:42:27;9.97;;;3.90;;
4391;SDS011;2210;51.938;8.488;2023-11-19T13:46:31;15.10;;;3.57;;
4391;SDS011;2210;51.938;8.488;2023-11-19T13:50:34;10.40;;;2.70;;
4391;SDS011;2210;51.938;8.488;2023-11-19T13:54:37;16.70;;;3.87;;
4391;SDS011;2210;51.938;8.488;2023-11-19T13:58:37;18.03;;;6.07;;
4391;SDS011;2210;51.938;8.488;2023-11-19T14:02:56;15.33;;;3.60;;
4391;SDS011;2210;51.938;8.488;2023-11-19T14:06:56;13.17;;;4.00;;
4391;SDS011;2210;51.938;8.488;2023-11-19T14:10:57;13.63;;;2.63;;
4391;SDS011;2210;51.938;8.488;2023-11-19T14:14:57;14.93;;;2.93;;
4391;SDS011;2210;51.938;8.488;2023-11-19T14:19:04;11.03;;;2.90;;
4391;SDS011;2210;51.938;8.488;2023-11-19T14:23:06;8.23;;;2.80;;
4391;SDS011;2210;51.938;8.488;2023-11-19T14:27:07;11.63;;;3.07;;
4391;SDS011;2210;51.938;8.488;2023-11-19T14:31:16;12.15;;;2.80;;
4391;SDS011;2210;51.938;8.488;2023-11-19T14:35:28;8.80;;;2.87;;
4391;SDS011;2210;51.938;8.488;2023-11-19T14:39:33;7.37;;;2.50;;
4391;SDS011;2210;51.938;8.488;2023-11-19T14:43:33;12.07;;;2.60;;
4391;SDS011;2210;51.938;8.488;2023-11-19T14:47:42;10.23;;;2.13;;
4391;SDS011;2210;51.938;8.488;2023-11-19T14:51:43;9.90;;;3.53;;
4391;SDS011;2210;51.938;8.488;2023-11-19T14:55:43;9.23;;;2.77;;
4391;SDS011;2210;51.938;8.488;2023-11-19T14:59:44;8.60;;;2.73;;
4391;SDS011;2210;51.938;8.488;2023-11-19T15:03:47;11.30;;;3.27;;
4391;SDS011;2210;51.938;8.488;2023-11-19T15:07:47;19.17;;;3.93;;
4391;SDS011;2210;51.938;8.488;2023-11-19T15:11:54;10.37;;;4.53;;
4391;SDS011;2210;51.938;8.488;2023-11-19T15:15:54;15.43;;;4.90;;
4391;SDS011;2210;51.938;8.488;2023-11-19T15:19:55;12.30;;;2.70;;
4391;SDS011;2210;51.938;8.488;2023-11-19T15:23:56;15.50;;;5.93;;
4391;SDS011;2210;51.938;8.488;2023-11-19T15:27:56;9.63;;;3.37;;
4391;SDS011;2210;51.938;8.488;2023-11-19T15:31:57;10.10;;;3.47;;
4391;SDS011;2210;51.938;8.488;2023-11-19T15:36:00;10.45;;;3.33;;
4391;SDS011;2210;51.938;8.488;2023-11-19T15:40:02;11.57;;;4.43;;
4391;SDS011;2210;51.938;8.488;2023-11-19T15:44:07;15.50;;;3.87;;
4391;SDS011;2210;51.938;8.488;2023-11-19T15:48:08;10.27;;;4.47;;
4391;SDS011;2210;51.938;8.488;2023-11-19T15:52:08;13.77;;;3.30;;
4391;SDS011;2210;51.938;8.488;2023-11-19T15:56:12;10.17;;;3.60;;
4391;SDS011;2210;51.938;8.488;2023-11-19T16:00:12;9.90;;;2.57;;
4391;SDS011;2210;51.938;8.488;2023-11-19T16:04:16;7.00;;;2.50;;
4391;SDS011;2210;51.938;8.488;2023-11-19T16:08:17;11.20;;;3.37;;
4391;SDS011;2210;51.938;8.488;2023-11-19T16:12:17;7.53;;;2.10;;
4391;SDS011;2210;51.938;8.488;2023-11-19T16:16:17;7.50;;;2.43;;
4391;SDS011;2210;51.938;8.488;2023-11-19T16:20:17;11.38;;;2.22;;
4391;SDS011;2210;51.938;8.488;2023-11-19T16:24:18;19.00;;;3.10;;
4391;SDS011;2210;51.938;8.488;2023-11-19T16:28:18;9.00;;;1.80;;
4391;SDS011;2210;51.938;8.488;2023-11-19T16:32:18;6.20;;;2.63;;
4391;SDS011;2210;51.938;8.488;2023-11-19T16:36:19;8.20;;;2.83;;
4391;SDS011;2210;51.938;8.488;2023-11-19T16:40:19;8.03;;;2.90;;
4391;SDS011;2210;51.938;8.488;2023-11-19T16:44:19;12.47;;;3.53;;
4391;SDS011;2210;51.938;8.488;2023-11-19T16:48:20;7.03;;;2.60;;
4391;SDS011;2210;51.938;8.488;2023-11-19T16:52:20;11.67;;;3.70;;
4391;SDS011;2210;51.938;8.488;2023-11-19T16:56:21;7.97;;;3.13;;
4391;SDS011;2210;51.938;8.488;2023-11-19T17:00:24;12.80;;;4.73;;
4391;SDS011;2210;51.938;8.488;2023-11-19T17:04:25;8.90;;;3.70;;
4391;SDS011;2210;51.938;8.488;2023-11-19T17:08:33;6.83;;;2.50;;
4391;SDS011;2210;51.938;8.488;2023-11-19T17:12:34;10.83;;;5.20;;
4391;SDS011;2210;51.938;8.488;2023-11-19T17:16:34;12.60;;;3.90;;
4391;SDS011;2210;51.938;8.488;2023-11-19T17:20:36;9.93;;;3.40;;
4391;SDS011;2210;51.938;8.488;2023-11-19T17:24:44;7.63;;;2.50;;
4391;SDS011;2210;51.938;8.488;2023-11-19T17:28:44;9.60;;;2.60;;
4391;SDS011;2210;51.938;8.488;2023-11-19T17:32:45;8.07;;;2.87;;
4391;SDS011;2210;51.938;8.488;2023-11-19T17:36:45;9.00;;;2.93;;
4391;SDS011;2210;51.938;8.488;2023-11-19T17:40:46;11.20;;;2.93;;
4391;SDS011;2210;51.938;8.488;2023-11-19T17:44:50;13.93;;;4.77;;
4391;SDS011;2210;51.938;8.488;2023-11-19T17:48:53;7.37;;;2.87;;
4391;SDS011;2210;51.938;8.488;2023-11-19T17:52:53;15.50;;;3.30;;
4391;SDS011;2210;51.938;8.488;2023-11-19T17:56:53;8.57;;;3.10;;
4391;SDS011;2210;51.938;8.488;2023-11-19T18:00:54;13.77;;;3.10;;
4391;SDS011;2210;51.938;8.488;2023-11-19T18:04:57;9.38;;;2.63;;
4391;SDS011;2210;51.938;8.488;2023-11-19T18:08:57;13.87;;;3.80;;
4391;SDS011;2210;51.938;8.488;2023-11-19T18:12:58;7.53;;;2.60;;
4391;SDS011;2210;51.938;8.488;2023-11-19T18:16:58;9.37;;;4.20;;
4391;SDS011;2210;51.938;8.488;2023-11-19T18:20:58;12.00;;;2.80;;
4391;SDS011;2210;51.938;8.488;2023-11-19T18:24:59;11.50;;;4.20;;
4391;SDS011;2210;51.938;8.488;2023-11-19T18:28:59;5.33;;;2.77;;
4391;SDS011;2210;51.938;8.488;2023-11-19T18:33:00;11.33;;;4.70;;
4391;SDS011;2210;51.938;8.488;2023-11-19T18:37:00;10.40;;;3.90;;
4391;SDS011;2210;51.938;8.488;2023-11-19T18:41:00;9.53;;;3.50;;
4391;SDS011;2210;51.938;8.488;2023-11-19T18:45:02;10.63;;;2.60;;
4391;SDS011;2210;51.938;8.488;2023-11-19T18:49:04;5.80;;;2.97;;
4391;SDS011;2210;51.938;8.488;2023-11-19T18:53:05;8.57;;;2.87;;
4391;SDS011;2210;51.938;8.488;2023-11-19T18:57:07;10.23;;;3.20;;
4391;SDS011;2210;51.938;8.488;2023-11-19T19:01:08;8.90;;;4.13;;
4391;SDS011;2210;51.938;8.488;2023-11-19T19:05:08;6.57;;;3.40;;
4391;SDS011;2210;51.938;8.488;2023-11-19T19:09:21;11.60;;;3.23;;
4391;SDS011;2210;51.938;8.488;2023-11-19T19:13:21;6.90;;;2.97;;
4391;SDS011;2210;51.938;8.488;2023-11-19T19:17:22;3.77;;;2.63;;
4391;SDS011;2210;51.938;8.488;2023-11-19T19:21:22;8.57;;;4.07;;
4391;SDS011;2210;51.938;8.488;2023-11-19T19:25:22;6.97;;;3.50;;
4391;SDS011;2210;51.938;8.488;2023-11-19T19:29:28;8.00;;;3.83;;
4391;SDS011;2210;51.938;8.488;2023-11-19T19:33:28;5.60;;;3.28;;
4391;SDS011;2210;51.938;8.488;2023-11-19T19:37:29;9.00;;;2.87;;
4391;SDS011;2210;51.938;8.488;2023-11-19T19:41:29;8.10;;;3.50;;
4391;SDS011;2210;51.938;8.488;2023-11-19T19:45:29;8.07;;;3.67;;
4391;SDS011;2210;51.938;8.488;2023-11-19T19:49:30;7.20;;;2.33;;
4391;SDS011;2210;51.938;8.488;2023-11-19T19:53:31;8.23;;;3.23;;
4391;SDS011;2210;51.938;8.488;2023-11-19T19:57:31;7.10;;;3.57;;
4391;SDS011;2210;51.938;8.488;2023-11-19T20:01:33;6.00;;;3.23;;
4391;SDS011;2210;51.938;8.488;2023-11-19T20:05:33;12.47;;;2.60;;
4391;SDS011;2210;51.938;8.488;2023-11-19T20:09:34;6.17;;;2.60;;
4391;SDS011;2210;51.938;8.488;2023-11-19T20:13:37;8.25;;;2.45;;
4391;SDS011;2210;51.938;8.488;2023-11-19T20:17:37;6.37;;;2.53;;
4391;SDS011;2210;51.938;8.488;2023-11-19T20:21:38;4.93;;;2.00;;
4391;SDS011;2210;51.938;8.488;2023-11-19T20:25:38;5.88;;;2.67;;
4391;SDS011;2210;51.938;8.488;2023-11-19T20:29:39;5.40;;;2.30;;
4391;SDS011;2210;51.938;8.488;2023-11-19T20:33:39;10.80;;;2.92;;
4391;SDS011;2210;51.938;8.488;2023-11-19T20:37:39;8.10;;;1.83;;
4391;SDS011;2210;51.938;8.488;2023-11-19T20:41:40;3.80;;;1.90;;
4391;SDS011;2210;51.938;8.488;2023-11-19T20:45:42;9.57;;;2.10;;
4391;SDS011;2210;51.938;8.488;2023-11-19T20:49:43;4.10;;;3.13;;
4391;SDS011;2210;51.938;8.488;2023-11-19T20:53:43;7.13;;;3.27;;
4391;SDS011;2210;51.938;8.488;2023-11-19T20:57:43;6.30;;;3.03;;
4391;SDS011;2210;51.938;8.488;2023-11-19T21:01:44;7.63;;;3.22;;
4391;SDS011;2210;51.938;8.488;2023-11-19T21:05:44;3.87;;;1.83;;
4391;SDS011;2210;51.938;8.488;2023-11-19T21:09:55;7.33;;;3.63;;
4391;SDS011;2210;51.938;8.488;2023-11-19T21:13:56;12.50;;;6.70;;
4391;SDS011;2210;51.938;8.488;2023-11-19T21:17:56;7.60;;;4.00;;
4391;SDS011;2210;51.938;8.488;2023-11-19T21:21:56;3.13;;;2.33;;
4391;SDS011;2210;51.938;8.488;2023-11-19T21:25:57;5.82;;;2.38;;
4391;SDS011;2210;51.938;8.488;2023-11-19T21:29:58;2.90;;;1.90;;
4391;SDS011;2210;51.938;8.488;2023-11-19T21:33:59;2.63;;;1.50;;
4391;SDS011;2210;51.938;8.488;2023-11-19T21:37:59;1.30;;;1.20;;
4391;SDS011;2210;51.938;8.488;2023-11-19T21:41:59;3.20;;;1.20;;
4391;SDS011;2210;51.938;8.488;2023-11-19T21:46:00;2.70;;;1.20;;
4391;SDS011;2210;51.938;8.488;2023-11-19T21:50:00;3.20;;;1.53;;
4391;SDS011;2210;51.938;8.488;2023-11-19T21:54:01;5.53;;;1.30;;
4391;SDS011;2210;51.938;8.488;2023-11-19T21:58:01;1.25;;;0.82;;
4391;SDS011;2210;51.938;8.488;2023-11-19T22:02:01;1.43;;;1.10;;
4391;SDS011;2210;51.938;8.488;2023-11-19T22:06:02;2.80;;;1.40;;
4391;SDS011;2210;51.938;8.488;2023-11-19T22:10:03;0.83;;;0.83;;
4391;SDS011;2210;51.938;8.488;2023-11-19T22:14:04;1.23;;;0.90;;
4391;SDS011;2210;51.938;8.488;2023-11-19T22:18:05;2.57;;;1.00;;
4391;SDS011;2210;51.938;8.488;2023-11-19T22:22:05;2.20;;;0.80;;
4391;SDS011;2210;51.938;8.488;2023-11-19T22:26:06;1.80;;;0.95;;
4391;SDS011;2210;51.938;8.488;2023-11-19T22:30:06;1.73;;;1.20;;
4391;SDS011;2210;51.938;8.488;2023-11-19T22:34:14;1.90;;;0.77;;
4391;SDS011;2210;51.938;8.488;2023-11-19T22:38:15;0.90;;;0.90;;
4391;SDS011;2210;51.938;8.488;2023-11-19T22:42:15;1.90;;;0.90;;
4391;SDS011;2210;51.938;8.488;2023-11-19T22:46:15;0.90;;;0.80;;
4391;SDS011;2210;51.938;8.488;2023-11-19T22:50:16;1.33;;;0.90;;
4391;SDS011;2210;51.938;8.488;2023-11-19T22:54:16;1.03;;;0.93;;
4391;SDS011;2210;51.938;8.488;2023-11-19T22:58:16;1.30;;;1.00;;
4391;SDS011;2210;51.938;8.488;2023-11-19T23:02:16;1.35;;;1.20;;
4391;SDS011;2210;51.938;8.488;2023-11-19T23:06:17;2.23;;;1.60;;
4391;SDS011;2210;51.938;8.488;2023-11-19T23:10:17;1.40;;;1.30;;
4391;SDS011;2210;51.938;8.488;2023-11-19T23:14:27;4.43;;;1.60;;
4391;SDS011;2210;51.938;8.488;2023-11-19T23:18:30;1.70;;;1.60;;
4391;SDS011;2210;51.938;8.488;2023-11-19T23:22:30;2.20;;;2.00;;
4391;SDS011;2210;51.938;8.488;2023-11-19T23:26:33;2.13;;;1.80;;
4391;SDS011;2210;51.938;8.488;2023-11-19T23:30:34;3.43;;;2.23;;
4391;SDS011;2210;51.938;8.488;2023-11-19T23:34:43;2.80;;;2.20;;
4391;SDS011;2210;51.938;8.488;2023-11-19T23:38:43;2.80;;;2.30;;
4391;SDS011;2210;51.938;8.488;2023-11-19T23:42:44;2.53;;;2.17;;
4391;SDS011;2210;51.938;8.488;2023-11-19T23:46:44;4.10;;;2.20;;
4391;SDS011;2210;51.938;8.488;2023-11-19T23:50:44;3.23;;;2.03;;
4391;SDS011;2210;51.938;8.488;2023-11-19T23:54:45;2.60;;;1.70;;
4391;SDS011;2210;51.938;8.488;2023-11-19T23:58:45;3.50;;;2.73;;
